Platzwetter Flugplatz Wels

Flugwetter Linz LOWL

[Quelle: ADDS]
METAR
LOWL 122050Z 29008KT 8000 -RA FEW007 SCT011 BKN020 03/03 Q1006 TEMPO BKN008 =
LOWL 121715Z 1218/1318 26004KT 6000 -RA SCT008 BKN020 TX04/1218Z TN02/1307Z TEMPO 1218/1310 2000 RA OVC008 PROB40 TEMPO 1222/1309 0500 BCFG VV004 TEMPO 1313/1317 28009KT 3000 RA OVC010
TAF
LOWL 121715Z 1218/1318 26004KT 6000 -RA SCT008 BKN020 TX04/1218Z TN02/1307Z TEMPO 1218/1310 2000 RA OVC008 PROB40 TEMPO 1222/1309 0500 BCFG VV004 TEMPO 1313/1317 28009KT 3000 RA OVC010 =

Flugwetter Salzburg LOWS

[Quelle: ADDS]
METAR
LOWS 122050Z VRB02KT 5000 -RASN FEW003 SCT006 BKN010 00/00 Q1006 TEMPO BKN009 =
LOWS 121715Z 1218/1318 16004KT 9999 -RA SCT020 BKN035 TX04/1218Z TN01/1307Z TEMPO 1218/1224 32005KT 4000 RA SCT008 BKN012 TEMPO 1300/1315 32005KT 2500 RASN BKN009
TAF
LOWS 121715Z 1218/1318 16004KT 9999 -RA SCT020 BKN035 TX04/1218Z TN01/1307Z TEMPO 1218/1224 32005KT 4000 RA SCT008 BKN012 TEMPO 1300/1315 32005KT 2500 RASN BKN009 =

Wind - Verlauf

Windrichtung - Verlauf

Temperatur - Verlauf

Relative Luftfeuchtigkeit - Verlauf

Luftdruck - Verlauf

Cookies erleichtern die Bereitstellung unserer Dienste. Mit der Nutzung unserer Dienste erklären Sie sich damit einverstanden, dass wir Cookies verwenden.
Weitere Informationen Ok